CYXN

Whale Cove Airport

Whale Cove, Canada
METAR CYXN 211700Z 01015G21KT 15SM SCT020 OVC080 M00/M04 A2963 RMK SC4AC4 LAST STFD OBS/NEXT 221400Z SLP036
Observed Flight Rules
Sep-21 @ 17:00 UTC (10 hours ago) Visual Flight Rules
Wind Visibility Clouds
10° at 15 knots
 Gusting to 21 knots
15 miles
Temperatures Readings
Current 0°C / 32°F
Dewpoint -4°C / 25°F
Humidity 75%
Altimeter 29.63" Hg
Pressure 1003.6 hPa
Elevation 20
METAR CYXN 211700Z 01015G21KT 15SM SCT020 OVC080 M00/M04 A2963 RMK SC4AC4 LAST STFD OBS/NEXT 221400Z SLP036
Observed Flight Rules
Sep-21 @ 17:00 UTC
(10 hours ago)
VFR
Wind Visibility
10° at 15 knots
 Gusting to 21 knots
15 miles
Clouds
Temperature Dewpoint
0°C / 32°F -4°C / 25°F
Humidity Altimeter Pressure
75% 29.63" Hg 1003.6 hPa